sensor_id;sensor_type;location;lat;lon;timestamp;temperature;humidity
9915;DHT22;4996;48.746;9.174;2023-02-26T00:01:24;2.20;99.90
9915;DHT22;4996;48.746;9.174;2023-02-26T00:03:52;2.20;99.90
9915;DHT22;4996;48.746;9.174;2023-02-26T00:06:18;2.20;99.90
9915;DHT22;4996;48.746;9.174;2023-02-26T00:08:44;2.30;99.90
9915;DHT22;4996;48.746;9.174;2023-02-26T00:11:10;2.00;99.90
9915;DHT22;4996;48.746;9.174;2023-02-26T00:13:37;2.00;99.90
9915;DHT22;4996;48.746;9.174;2023-02-26T00:16:10;1.80;99.90
9915;DHT22;4996;48.746;9.174;2023-02-26T00:18:38;1.80;99.90
9915;DHT22;4996;48.746;9.174;2023-02-26T00:21:04;1.70;99.90
9915;DHT22;4996;48.746;9.174;2023-02-26T00:23:29;1.80;99.90
9915;DHT22;4996;48.746;9.174;2023-02-26T00:25:57;1.70;99.90
9915;DHT22;4996;48.746;9.174;2023-02-26T00:28:22;1.70;99.90
9915;DHT22;4996;48.746;9.174;2023-02-26T00:30:48;1.40;99.90
9915;DHT22;4996;48.746;9.174;2023-02-26T00:33:14;1.50;99.90
9915;DHT22;4996;48.746;9.174;2023-02-26T00:35:40;1.60;99.90
9915;DHT22;4996;48.746;9.174;2023-02-26T00:38:11;1.50;99.90
9915;DHT22;4996;48.746;9.174;2023-02-26T00:40:45;1.50;99.90
9915;DHT22;4996;48.746;9.174;2023-02-26T00:43:22;1.40;99.90
9915;DHT22;4996;48.746;9.174;2023-02-26T00:46:02;1.50;99.90
9915;DHT22;4996;48.746;9.174;2023-02-26T00:49:21;1.60;99.90
9915;DHT22;4996;48.746;9.174;2023-02-26T00:51:36;1.50;99.90
9915;DHT22;4996;48.746;9.174;2023-02-26T00:54:29;1.50;99.90
9915;DHT22;4996;48.746;9.174;2023-02-26T00:56:56;1.30;99.90
9915;DHT22;4996;48.746;9.174;2023-02-26T00:59:23;1.30;99.90
9915;DHT22;4996;48.746;9.174;2023-02-26T01:01:50;1.20;99.90
9915;DHT22;4996;48.746;9.174;2023-02-26T01:04:19;1.20;99.90
9915;DHT22;4996;48.746;9.174;2023-02-26T01:06:49;1.20;99.90
9915;DHT22;4996;48.746;9.174;2023-02-26T01:11:57;1.20;99.90
9915;DHT22;4996;48.746;9.174;2023-02-26T01:14:25;1.20;99.90
9915;DHT22;4996;48.746;9.174;2023-02-26T01:25:12;1.10;99.90
9915;DHT22;4996;48.746;9.174;2023-02-26T01:27:39;1.00;99.90
9915;DHT22;4996;48.746;9.174;2023-02-26T01:30:05;1.00;99.90
9915;DHT22;4996;48.746;9.174;2023-02-26T01:35:36;1.10;99.90
9915;DHT22;4996;48.746;9.174;2023-02-26T01:42:08;0.90;99.90
9915;DHT22;4996;48.746;9.174;2023-02-26T01:44:35;1.00;99.90
9915;DHT22;4996;48.746;9.174;2023-02-26T01:47:31;0.50;99.90
9915;DHT22;4996;48.746;9.174;2023-02-26T01:50:12;0.60;99.90
9915;DHT22;4996;48.746;9.174;2023-02-26T01:55:26;0.60;99.90
9915;DHT22;4996;48.746;9.174;2023-02-26T01:57:54;0.60;99.90
9915;DHT22;4996;48.746;9.174;2023-02-26T02:00:21;0.60;99.90
9915;DHT22;4996;48.746;9.174;2023-02-26T02:02:48;0.70;99.90
9915;DHT22;4996;48.746;9.174;2023-02-26T02:05:33;0.60;99.90
9915;DHT22;4996;48.746;9.174;2023-02-26T02:08:02;0.50;99.90
9915;DHT22;4996;48.746;9.174;2023-02-26T02:10:28;0.20;99.90
9915;DHT22;4996;48.746;9.174;2023-02-26T02:13:15;0.30;99.90
9915;DHT22;4996;48.746;9.174;2023-02-26T02:22:14;0.40;99.90
9915;DHT22;4996;48.746;9.174;2023-02-26T02:25:02;0.40;99.90
9915;DHT22;4996;48.746;9.174;2023-02-26T02:27:45;0.40;99.90
9915;DHT22;4996;48.746;9.174;2023-02-26T02:30:27;0.40;99.90
9915;DHT22;4996;48.746;9.174;2023-02-26T02:32:57;0.20;99.90
9915;DHT22;4996;48.746;9.174;2023-02-26T02:35:32;0.20;99.90
9915;DHT22;4996;48.746;9.174;2023-02-26T02:38:08;0.30;99.90
9915;DHT22;4996;48.746;9.174;2023-02-26T02:40:39;0.30;99.90
9915;DHT22;4996;48.746;9.174;2023-02-26T02:43:14;0.20;99.90
9915;DHT22;4996;48.746;9.174;2023-02-26T02:46:04;0.30;99.90
9915;DHT22;4996;48.746;9.174;2023-02-26T02:48:34;0.50;99.90
9915;DHT22;4996;48.746;9.174;2023-02-26T02:51:06;0.40;99.90
9915;DHT22;4996;48.746;9.174;2023-02-26T02:56:29;0.40;99.90
9915;DHT22;4996;48.746;9.174;2023-02-26T03:01:41;0.20;99.90
9915;DHT22;4996;48.746;9.174;2023-02-26T03:04:13;0.20;99.90
9915;DHT22;4996;48.746;9.174;2023-02-26T03:06:40;0.30;99.90
9915;DHT22;4996;48.746;9.174;2023-02-26T03:09:08;0.30;99.90
9915;DHT22;4996;48.746;9.174;2023-02-26T03:11:35;0.30;99.90
9915;DHT22;4996;48.746;9.174;2023-02-26T03:14:02;0.40;99.90
9915;DHT22;4996;48.746;9.174;2023-02-26T03:22:30;-0.10;99.90
9915;DHT22;4996;48.746;9.174;2023-02-26T03:25:09;0.00;99.90
9915;DHT22;4996;48.746;9.174;2023-02-26T03:30:38;0.20;99.90
9915;DHT22;4996;48.746;9.174;2023-02-26T03:33:17;0.20;99.90
9915;DHT22;4996;48.746;9.174;2023-02-26T03:35:51;0.30;99.90
9915;DHT22;4996;48.746;9.174;2023-02-26T03:38:32;0.30;99.90
9915;DHT22;4996;48.746;9.174;2023-02-26T03:41:13;0.30;99.90
9915;DHT22;4996;48.746;9.174;2023-02-26T03:44:11;0.30;99.90
9915;DHT22;4996;48.746;9.174;2023-02-26T03:46:45;0.20;99.90
9915;DHT22;4996;48.746;9.174;2023-02-26T03:49:17;0.30;99.90
9915;DHT22;4996;48.746;9.174;2023-02-26T03:51:45;0.40;99.90
9915;DHT22;4996;48.746;9.174;2023-02-26T03:54:23;0.40;99.90
9915;DHT22;4996;48.746;9.174;2023-02-26T03:56:50;0.40;99.90
9915;DHT22;4996;48.746;9.174;2023-02-26T03:59:16;0.30;99.90
9915;DHT22;4996;48.746;9.174;2023-02-26T04:07:17;0.20;99.90
9915;DHT22;4996;48.746;9.174;2023-02-26T04:09:45;0.00;99.90
9915;DHT22;4996;48.746;9.174;2023-02-26T04:12:11;0.10;99.90
9915;DHT22;4996;48.746;9.174;2023-02-26T04:14:37;0.00;99.90
9915;DHT22;4996;48.746;9.174;2023-02-26T04:17:03;0.00;99.90
9915;DHT22;4996;48.746;9.174;2023-02-26T04:19:29;-0.20;99.90
9915;DHT22;4996;48.746;9.174;2023-02-26T04:21:54;-0.30;99.90
9915;DHT22;4996;48.746;9.174;2023-02-26T04:24:20;-0.20;99.90
9915;DHT22;4996;48.746;9.174;2023-02-26T04:26:45;-0.10;99.90
9915;DHT22;4996;48.746;9.174;2023-02-26T04:29:11;0.30;99.90
9915;DHT22;4996;48.746;9.174;2023-02-26T04:31:37;0.00;99.90
9915;DHT22;4996;48.746;9.174;2023-02-26T04:34:02;-0.10;99.90
9915;DHT22;4996;48.746;9.174;2023-02-26T04:36:28;-0.10;99.90
9915;DHT22;4996;48.746;9.174;2023-02-26T04:38:53;-0.10;99.90
9915;DHT22;4996;48.746;9.174;2023-02-26T04:41:19;-0.20;99.90
9915;DHT22;4996;48.746;9.174;2023-02-26T04:43:45;-0.20;99.90
9915;DHT22;4996;48.746;9.174;2023-02-26T04:46:10;-0.30;99.90
9915;DHT22;4996;48.746;9.174;2023-02-26T04:48:36;-0.30;99.90
9915;DHT22;4996;48.746;9.174;2023-02-26T04:51:02;-0.30;99.90
9915;DHT22;4996;48.746;9.174;2023-02-26T04:53:28;-0.20;99.90
9915;DHT22;4996;48.746;9.174;2023-02-26T04:55:53;-0.30;99.90
9915;DHT22;4996;48.746;9.174;2023-02-26T04:58:19;-0.20;99.90
9915;DHT22;4996;48.746;9.174;2023-02-26T05:00:50;-0.20;99.90
9915;DHT22;4996;48.746;9.174;2023-02-26T05:03:16;-0.20;99.90
9915;DHT22;4996;48.746;9.174;2023-02-26T05:05:42;-0.30;99.90
9915;DHT22;4996;48.746;9.174;2023-02-26T05:08:08;-0.40;99.90
9915;DHT22;4996;48.746;9.174;2023-02-26T05:10:34;-0.30;99.90
9915;DHT22;4996;48.746;9.174;2023-02-26T05:13:00;-0.40;99.90
9915;DHT22;4996;48.746;9.174;2023-02-26T05:15:25;-0.20;99.90
9915;DHT22;4996;48.746;9.174;2023-02-26T05:17:51;-0.30;99.90
9915;DHT22;4996;48.746;9.174;2023-02-26T05:20:16;-0.50;99.90
9915;DHT22;4996;48.746;9.174;2023-02-26T05:22:42;-0.50;99.90
9915;DHT22;4996;48.746;9.174;2023-02-26T05:25:09;-0.60;99.90
9915;DHT22;4996;48.746;9.174;2023-02-26T05:27:36;-0.70;99.90
9915;DHT22;4996;48.746;9.174;2023-02-26T05:30:03;-0.70;99.90
9915;DHT22;4996;48.746;9.174;2023-02-26T05:32:28;-0.90;99.90
9915;DHT22;4996;48.746;9.174;2023-02-26T05:34:54;-0.50;99.90
9915;DHT22;4996;48.746;9.174;2023-02-26T05:37:19;-0.50;99.90
9915;DHT22;4996;48.746;9.174;2023-02-26T05:39:45;-0.80;99.90
9915;DHT22;4996;48.746;9.174;2023-02-26T05:42:10;-0.90;99.90
9915;DHT22;4996;48.746;9.174;2023-02-26T05:44:36;-0.80;99.90
9915;DHT22;4996;48.746;9.174;2023-02-26T05:47:02;-0.70;99.90
9915;DHT22;4996;48.746;9.174;2023-02-26T05:49:27;-0.80;99.90
9915;DHT22;4996;48.746;9.174;2023-02-26T05:51:53;-0.80;99.90
9915;DHT22;4996;48.746;9.174;2023-02-26T05:54:19;-0.70;99.90
9915;DHT22;4996;48.746;9.174;2023-02-26T05:56:44;-0.20;99.90
9915;DHT22;4996;48.746;9.174;2023-02-26T05:59:10;-0.70;99.90
9915;DHT22;4996;48.746;9.174;2023-02-26T06:01:36;-0.70;99.90
9915;DHT22;4996;48.746;9.174;2023-02-26T06:04:03;-0.70;99.90
9915;DHT22;4996;48.746;9.174;2023-02-26T06:06:28;-0.70;99.90
9915;DHT22;4996;48.746;9.174;2023-02-26T06:08:54;-0.60;99.90
9915;DHT22;4996;48.746;9.174;2023-02-26T06:11:19;-0.60;99.90
9915;DHT22;4996;48.746;9.174;2023-02-26T06:13:45;-0.90;99.90
9915;DHT22;4996;48.746;9.174;2023-02-26T06:16:11;-0.80;99.90
9915;DHT22;4996;48.746;9.174;2023-02-26T06:18:36;-0.40;99.90
9915;DHT22;4996;48.746;9.174;2023-02-26T06:21:02;-0.80;99.90
9915;DHT22;4996;48.746;9.174;2023-02-26T06:23:28;-0.90;99.90
9915;DHT22;4996;48.746;9.174;2023-02-26T06:25:53;-0.80;99.90
9915;DHT22;4996;48.746;9.174;2023-02-26T06:28:19;-0.70;99.90
9915;DHT22;4996;48.746;9.174;2023-02-26T06:30:45;-0.80;99.90
9915;DHT22;4996;48.746;9.174;2023-02-26T06:33:11;-0.50;99.90
9915;DHT22;4996;48.746;9.174;2023-02-26T06:35:36;-0.80;99.90
9915;DHT22;4996;48.746;9.174;2023-02-26T06:38:02;-0.90;99.90
9915;DHT22;4996;48.746;9.174;2023-02-26T06:40:28;-1.10;99.90
9915;DHT22;4996;48.746;9.174;2023-02-26T06:42:55;-1.10;99.90
9915;DHT22;4996;48.746;9.174;2023-02-26T06:45:20;-1.00;99.90
9915;DHT22;4996;48.746;9.174;2023-02-26T06:47:46;-0.90;99.90
9915;DHT22;4996;48.746;9.174;2023-02-26T06:50:12;-0.70;99.90
9915;DHT22;4996;48.746;9.174;2023-02-26T06:52:37;-0.80;99.90
9915;DHT22;4996;48.746;9.174;2023-02-26T06:55:04;-0.90;99.90
9915;DHT22;4996;48.746;9.174;2023-02-26T06:57:29;-1.10;99.90
9915;DHT22;4996;48.746;9.174;2023-02-26T06:59:55;-1.10;99.90
9915;DHT22;4996;48.746;9.174;2023-02-26T07:02:22;-1.00;99.90
9915;DHT22;4996;48.746;9.174;2023-02-26T07:04:47;-0.80;99.90
9915;DHT22;4996;48.746;9.174;2023-02-26T07:07:13;-0.90;99.90
9915;DHT22;4996;48.746;9.174;2023-02-26T07:09:39;-0.90;99.90
9915;DHT22;4996;48.746;9.174;2023-02-26T07:12:04;-0.80;99.90
9915;DHT22;4996;48.746;9.174;2023-02-26T07:14:32;-0.70;99.90
9915;DHT22;4996;48.746;9.174;2023-02-26T07:16:57;-0.90;99.90
9915;DHT22;4996;48.746;9.174;2023-02-26T07:19:23;-0.80;99.90
9915;DHT22;4996;48.746;9.174;2023-02-26T07:21:48;-1.00;99.90
9915;DHT22;4996;48.746;9.174;2023-02-26T07:24:14;-0.90;99.90
9915;DHT22;4996;48.746;9.174;2023-02-26T07:26:39;-0.60;99.90
9915;DHT22;4996;48.746;9.174;2023-02-26T07:29:05;-0.40;99.90
9915;DHT22;4996;48.746;9.174;2023-02-26T07:31:31;-0.30;99.90
9915;DHT22;4996;48.746;9.174;2023-02-26T07:33:57;-0.40;99.90
9915;DHT22;4996;48.746;9.174;2023-02-26T07:36:22;-0.30;99.90
9915;DHT22;4996;48.746;9.174;2023-02-26T07:38:47;-0.30;99.90
9915;DHT22;4996;48.746;9.174;2023-02-26T07:41:13;-0.10;99.90
9915;DHT22;4996;48.746;9.174;2023-02-26T07:43:39;-0.10;99.90
9915;DHT22;4996;48.746;9.174;2023-02-26T07:46:04;-0.10;99.90
9915;DHT22;4996;48.746;9.174;2023-02-26T07:48:30;-0.10;99.90
9915;DHT22;4996;48.746;9.174;2023-02-26T07:50:56;0.40;99.90
9915;DHT22;4996;48.746;9.174;2023-02-26T07:53:22;0.20;99.90
9915;DHT22;4996;48.746;9.174;2023-02-26T07:55:48;-0.20;99.90
9915;DHT22;4996;48.746;9.174;2023-02-26T07:58:13;0.00;99.90
9915;DHT22;4996;48.746;9.174;2023-02-26T08:00:39;0.30;99.90
9915;DHT22;4996;48.746;9.174;2023-02-26T08:03:04;-0.10;99.90
9915;DHT22;4996;48.746;9.174;2023-02-26T08:05:30;-0.40;99.90
9915;DHT22;4996;48.746;9.174;2023-02-26T08:07:55;-0.40;99.90
9915;DHT22;4996;48.746;9.174;2023-02-26T08:10:21;-0.70;99.90
9915;DHT22;4996;48.746;9.174;2023-02-26T08:12:47;-0.50;99.90
9915;DHT22;4996;48.746;9.174;2023-02-26T08:15:12;-0.40;99.90
9915;DHT22;4996;48.746;9.174;2023-02-26T08:17:39;-0.30;99.90
9915;DHT22;4996;48.746;9.174;2023-02-26T08:20:06;-0.20;99.90
9915;DHT22;4996;48.746;9.174;2023-02-26T08:22:32;-0.10;99.90
9915;DHT22;4996;48.746;9.174;2023-02-26T08:24:59;-0.20;99.90
9915;DHT22;4996;48.746;9.174;2023-02-26T08:27:25;0.10;99.90
9915;DHT22;4996;48.746;9.174;2023-02-26T08:29:50;0.70;99.90
9915;DHT22;4996;48.746;9.174;2023-02-26T08:32:17;0.60;99.90
9915;DHT22;4996;48.746;9.174;2023-02-26T08:34:44;0.90;99.90
9915;DHT22;4996;48.746;9.174;2023-02-26T08:37:11;1.30;99.90
9915;DHT22;4996;48.746;9.174;2023-02-26T08:39:37;0.90;99.90
9915;DHT22;4996;48.746;9.174;2023-02-26T08:42:04;0.60;99.90
9915;DHT22;4996;48.746;9.174;2023-02-26T08:44:30;0.20;99.90
9915;DHT22;4996;48.746;9.174;2023-02-26T08:46:56;0.10;99.90
9915;DHT22;4996;48.746;9.174;2023-02-26T08:49:21;0.00;99.90
9915;DHT22;4996;48.746;9.174;2023-02-26T08:51:47;0.30;99.90
9915;DHT22;4996;48.746;9.174;2023-02-26T08:54:13;0.20;99.90
9915;DHT22;4996;48.746;9.174;2023-02-26T08:56:38;0.20;99.90
9915;DHT22;4996;48.746;9.174;2023-02-26T08:59:04;0.10;99.90
9915;DHT22;4996;48.746;9.174;2023-02-26T09:01:30;-0.20;99.90
9915;DHT22;4996;48.746;9.174;2023-02-26T09:03:55;-0.40;99.90
9915;DHT22;4996;48.746;9.174;2023-02-26T09:06:21;-0.40;99.90
9915;DHT22;4996;48.746;9.174;2023-02-26T09:08:47;-0.40;99.90
9915;DHT22;4996;48.746;9.174;2023-02-26T09:11:17;-0.40;99.90
9915;DHT22;4996;48.746;9.174;2023-02-26T09:13:42;-0.70;99.90
9915;DHT22;4996;48.746;9.174;2023-02-26T09:16:09;-0.60;99.90
9915;DHT22;4996;48.746;9.174;2023-02-26T09:18:35;-0.40;99.90
9915;DHT22;4996;48.746;9.174;2023-02-26T09:21:00;-0.10;99.90
9915;DHT22;4996;48.746;9.174;2023-02-26T09:23:27;0.00;99.90
9915;DHT22;4996;48.746;9.174;2023-02-26T09:25:53;0.30;99.90
9915;DHT22;4996;48.746;9.174;2023-02-26T09:28:20;0.40;99.90
9915;DHT22;4996;48.746;9.174;2023-02-26T09:30:46;0.30;99.90
9915;DHT22;4996;48.746;9.174;2023-02-26T09:33:12;0.20;99.90
9915;DHT22;4996;48.746;9.174;2023-02-26T09:35:37;0.70;99.90
9915;DHT22;4996;48.746;9.174;2023-02-26T09:38:03;0.20;99.90
9915;DHT22;4996;48.746;9.174;2023-02-26T09:40:49;0.30;99.90
9915;DHT22;4996;48.746;9.174;2023-02-26T09:52:03;-0.10;99.90
9915;DHT22;4996;48.746;9.174;2023-02-26T09:54:39;-0.10;99.90
9915;DHT22;4996;48.746;9.174;2023-02-26T09:57:09;0.10;99.90
9915;DHT22;4996;48.746;9.174;2023-02-26T09:59:39;0.30;99.90
9915;DHT22;4996;48.746;9.174;2023-02-26T10:02:27;0.20;99.90
9915;DHT22;4996;48.746;9.174;2023-02-26T10:05:17;0.50;99.90
9915;DHT22;4996;48.746;9.174;2023-02-26T10:07:59;0.60;99.90
9915;DHT22;4996;48.746;9.174;2023-02-26T10:10:49;0.80;99.90
9915;DHT22;4996;48.746;9.174;2023-02-26T10:13:46;0.70;99.90
9915;DHT22;4996;48.746;9.174;2023-02-26T10:16:15;0.60;99.90
9915;DHT22;4996;48.746;9.174;2023-02-26T10:18:47;0.30;99.90
9915;DHT22;4996;48.746;9.174;2023-02-26T10:21:22;0.30;99.90
9915;DHT22;4996;48.746;9.174;2023-02-26T10:23:56;0.30;99.90
9915;DHT22;4996;48.746;9.174;2023-02-26T10:26:29;0.50;99.90
9915;DHT22;4996;48.746;9.174;2023-02-26T10:29:18;0.60;99.90
9915;DHT22;4996;48.746;9.174;2023-02-26T10:32:10;0.40;99.90
9915;DHT22;4996;48.746;9.174;2023-02-26T10:34:39;0.50;99.90
9915;DHT22;4996;48.746;9.174;2023-02-26T10:37:41;0.70;99.90
9915;DHT22;4996;48.746;9.174;2023-02-26T10:40:16;0.80;99.90
9915;DHT22;4996;48.746;9.174;2023-02-26T10:42:50;0.80;99.90
9915;DHT22;4996;48.746;9.174;2023-02-26T10:48:30;0.60;99.90
9915;DHT22;4996;48.746;9.174;2023-02-26T10:51:02;0.40;99.90
9915;DHT22;4996;48.746;9.174;2023-02-26T10:53:30;1.00;99.90
9915;DHT22;4996;48.746;9.174;2023-02-26T10:56:20;0.40;99.90
9915;DHT22;4996;48.746;9.174;2023-02-26T10:58:47;0.60;99.90
9915;DHT22;4996;48.746;9.174;2023-02-26T11:01:16;0.80;99.90
9915;DHT22;4996;48.746;9.174;2023-02-26T11:03:45;1.10;99.90
9915;DHT22;4996;48.746;9.174;2023-02-26T11:06:18;1.40;99.90
9915;DHT22;4996;48.746;9.174;2023-02-26T11:08:51;1.30;99.90
9915;DHT22;4996;48.746;9.174;2023-02-26T11:11:40;1.40;99.90
9915;DHT22;4996;48.746;9.174;2023-02-26T11:14:06;1.60;99.90
9915;DHT22;4996;48.746;9.174;2023-02-26T11:16:34;2.20;99.90
9915;DHT22;4996;48.746;9.174;2023-02-26T11:19:00;1.70;99.90
9915;DHT22;4996;48.746;9.174;2023-02-26T11:21:29;1.60;99.90
9915;DHT22;4996;48.746;9.174;2023-02-26T11:24:05;1.50;99.90
9915;DHT22;4996;48.746;9.174;2023-02-26T11:26:34;1.60;99.90
9915;DHT22;4996;48.746;9.174;2023-02-26T11:29:01;1.70;99.90
9915;DHT22;4996;48.746;9.174;2023-02-26T11:31:27;2.00;99.90
9915;DHT22;4996;48.746;9.174;2023-02-26T11:34:01;1.80;99.90
9915;DHT22;4996;48.746;9.174;2023-02-26T11:36:28;1.60;99.90
9915;DHT22;4996;48.746;9.174;2023-02-26T11:39:02;1.70;99.90
9915;DHT22;4996;48.746;9.174;2023-02-26T11:41:29;1.70;99.90
9915;DHT22;4996;48.746;9.174;2023-02-26T11:44:06;1.40;99.90
9915;DHT22;4996;48.746;9.174;2023-02-26T11:46:38;1.30;99.90
9915;DHT22;4996;48.746;9.174;2023-02-26T11:49:07;1.30;99.90
9915;DHT22;4996;48.746;9.174;2023-02-26T11:51:34;1.50;99.90
9915;DHT22;4996;48.746;9.174;2023-02-26T11:54:00;1.60;99.90
9915;DHT22;4996;48.746;9.174;2023-02-26T11:56:36;1.50;99.90
9915;DHT22;4996;48.746;9.174;2023-02-26T11:59:19;1.60;99.90
9915;DHT22;4996;48.746;9.174;2023-02-26T12:01:46;1.70;99.90
9915;DHT22;4996;48.746;9.174;2023-02-26T12:04:13;1.70;99.90
9915;DHT22;4996;48.746;9.174;2023-02-26T12:06:39;1.90;99.90
9915;DHT22;4996;48.746;9.174;2023-02-26T12:09:11;1.90;99.90
9915;DHT22;4996;48.746;9.174;2023-02-26T12:12:02;1.50;99.90
9915;DHT22;4996;48.746;9.174;2023-02-26T12:14:40;1.50;99.90
9915;DHT22;4996;48.746;9.174;2023-02-26T12:39:52;1.10;99.90
9915;DHT22;4996;48.746;9.174;2023-02-26T12:48:39;1.50;99.90
9915;DHT22;4996;48.746;9.174;2023-02-26T12:59:42;1.60;99.90
9915;DHT22;4996;48.746;9.174;2023-02-26T13:05:22;2.80;99.90
9915;DHT22;4996;48.746;9.174;2023-02-26T13:07:58;2.00;99.90
9915;DHT22;4996;48.746;9.174;2023-02-26T13:10:41;2.10;99.90
9915;DHT22;4996;48.746;9.174;2023-02-26T13:18:42;1.70;99.90
9915;DHT22;4996;48.746;9.174;2023-02-26T13:21:34;1.90;99.90
9915;DHT22;4996;48.746;9.174;2023-02-26T13:24:06;1.70;99.90
9915;DHT22;4996;48.746;9.174;2023-02-26T13:26:33;1.70;99.90
9915;DHT22;4996;48.746;9.174;2023-02-26T13:29:17;1.90;99.90
9915;DHT22;4996;48.746;9.174;2023-02-26T13:32:09;1.50;99.90
9915;DHT22;4996;48.746;9.174;2023-02-26T13:34:45;1.40;99.90
9915;DHT22;4996;48.746;9.174;2023-02-26T13:37:37;1.70;99.90
9915;DHT22;4996;48.746;9.174;2023-02-26T13:42:46;1.60;99.90
9915;DHT22;4996;48.746;9.174;2023-02-26T13:48:09;1.70;99.90
9915;DHT22;4996;48.746;9.174;2023-02-26T13:50:59;1.40;99.90
9915;DHT22;4996;48.746;9.174;2023-02-26T13:59:04;1.90;99.90
9915;DHT22;4996;48.746;9.174;2023-02-26T14:14:40;2.80;99.90
9915;DHT22;4996;48.746;9.174;2023-02-26T14:19:37;2.60;99.90
9915;DHT22;4996;48.746;9.174;2023-02-26T14:22:23;2.60;99.90
9915;DHT22;4996;48.746;9.174;2023-02-26T14:25:13;2.50;99.90
9915;DHT22;4996;48.746;9.174;2023-02-26T14:27:42;2.60;99.90
9915;DHT22;4996;48.746;9.174;2023-02-26T14:35:46;2.60;99.90
9915;DHT22;4996;48.746;9.174;2023-02-26T14:38:36;2.40;99.90
9915;DHT22;4996;48.746;9.174;2023-02-26T14:41:06;2.70;99.90
9915;DHT22;4996;48.746;9.174;2023-02-26T14:43:39;3.20;99.90
9915;DHT22;4996;48.746;9.174;2023-02-26T14:46:07;2.70;99.90
9915;DHT22;4996;48.746;9.174;2023-02-26T14:48:34;2.90;99.90
9915;DHT22;4996;48.746;9.174;2023-02-26T14:56:34;2.80;99.90
9915;DHT22;4996;48.746;9.174;2023-02-26T14:59:13;2.60;99.90
9915;DHT22;4996;48.746;9.174;2023-02-26T15:04:44;2.40;99.90
9915;DHT22;4996;48.746;9.174;2023-02-26T15:07:35;2.60;99.90
9915;DHT22;4996;48.746;9.174;2023-02-26T15:25:42;2.90;99.90
9915;DHT22;4996;48.746;9.174;2023-02-26T15:28:48;2.80;99.90
9915;DHT22;4996;48.746;9.174;2023-02-26T15:31:09;2.70;99.90
9915;DHT22;4996;48.746;9.174;2023-02-26T15:33:35;3.00;99.90
9915;DHT22;4996;48.746;9.174;2023-02-26T15:36:06;2.70;99.90
9915;DHT22;4996;48.746;9.174;2023-02-26T15:38:45;2.70;99.90
9915;DHT22;4996;48.746;9.174;2023-02-26T15:41:11;2.70;99.90
9915;DHT22;4996;48.746;9.174;2023-02-26T15:43:45;2.70;99.90
9915;DHT22;4996;48.746;9.174;2023-02-26T15:46:13;2.50;99.90
9915;DHT22;4996;48.746;9.174;2023-02-26T15:48:40;2.60;99.90
9915;DHT22;4996;48.746;9.174;2023-02-26T15:51:11;2.40;99.90
9915;DHT22;4996;48.746;9.174;2023-02-26T15:53:42;2.30;99.90
9915;DHT22;4996;48.746;9.174;2023-02-26T15:56:14;2.40;99.90
9915;DHT22;4996;48.746;9.174;2023-02-26T15:58:46;2.30;99.90
9915;DHT22;4996;48.746;9.174;2023-02-26T16:01:26;2.30;99.90
9915;DHT22;4996;48.746;9.174;2023-02-26T16:03:56;2.70;99.90
9915;DHT22;4996;48.746;9.174;2023-02-26T16:06:26;2.20;99.90
9915;DHT22;4996;48.746;9.174;2023-02-26T16:08:52;2.30;99.90
9915;DHT22;4996;48.746;9.174;2023-02-26T16:11:18;2.50;99.90
9915;DHT22;4996;48.746;9.174;2023-02-26T16:13:46;2.40;99.90
9915;DHT22;4996;48.746;9.174;2023-02-26T16:16:38;2.00;99.90
9915;DHT22;4996;48.746;9.174;2023-02-26T16:19:05;1.90;99.90
9915;DHT22;4996;48.746;9.174;2023-02-26T16:21:35;1.80;99.90
9915;DHT22;4996;48.746;9.174;2023-02-26T16:24:05;1.70;99.90
9915;DHT22;4996;48.746;9.174;2023-02-26T16:26:32;1.60;99.90
9915;DHT22;4996;48.746;9.174;2023-02-26T16:29:03;1.80;99.90
9915;DHT22;4996;48.746;9.174;2023-02-26T16:31:31;1.90;99.90
9915;DHT22;4996;48.746;9.174;2023-02-26T16:36:46;1.60;99.90
9915;DHT22;4996;48.746;9.174;2023-02-26T16:39:21;1.80;99.90
9915;DHT22;4996;48.746;9.174;2023-02-26T16:41:55;1.90;99.90
9915;DHT22;4996;48.746;9.174;2023-02-26T16:46:57;1.40;99.90
9915;DHT22;4996;48.746;9.174;2023-02-26T16:51:51;1.20;99.90
9915;DHT22;4996;48.746;9.174;2023-02-26T16:54:39;1.20;99.90
9915;DHT22;4996;48.746;9.174;2023-02-26T16:57:11;1.30;99.90
9915;DHT22;4996;48.746;9.174;2023-02-26T16:59:38;1.40;99.90
9915;DHT22;4996;48.746;9.174;2023-02-26T17:02:17;1.40;99.90
9915;DHT22;4996;48.746;9.174;2023-02-26T17:04:45;1.50;99.90
9915;DHT22;4996;48.746;9.174;2023-02-26T17:09:56;1.30;99.90
9915;DHT22;4996;48.746;9.174;2023-02-26T17:13:01;1.40;99.90
9915;DHT22;4996;48.746;9.174;2023-02-26T17:15:25;1.30;99.90
9915;DHT22;4996;48.746;9.174;2023-02-26T17:17:51;1.60;99.90
9915;DHT22;4996;48.746;9.174;2023-02-26T17:20:22;1.30;99.90
9915;DHT22;4996;48.746;9.174;2023-02-26T17:22:48;1.30;99.90
9915;DHT22;4996;48.746;9.174;2023-02-26T17:25:16;1.30;99.90
9915;DHT22;4996;48.746;9.174;2023-02-26T17:27:42;1.50;99.90
9915;DHT22;4996;48.746;9.174;2023-02-26T17:30:10;1.60;99.90
9915;DHT22;4996;48.746;9.174;2023-02-26T17:32:37;1.70;99.90
9915;DHT22;4996;48.746;9.174;2023-02-26T17:35:03;1.50;99.90
9915;DHT22;4996;48.746;9.174;2023-02-26T17:37:31;1.50;99.90
9915;DHT22;4996;48.746;9.174;2023-02-26T17:39:58;1.60;99.90
9915;DHT22;4996;48.746;9.174;2023-02-26T17:42:24;1.80;99.90
9915;DHT22;4996;48.746;9.174;2023-02-26T17:44:50;1.40;99.90
9915;DHT22;4996;48.746;9.174;2023-02-26T17:47:21;1.50;99.90
9915;DHT22;4996;48.746;9.174;2023-02-26T17:49:48;1.40;99.90
9915;DHT22;4996;48.746;9.174;2023-02-26T17:52:14;1.10;99.90
9915;DHT22;4996;48.746;9.174;2023-02-26T17:54:40;0.90;99.90
9915;DHT22;4996;48.746;9.174;2023-02-26T17:57:08;1.10;99.90
9915;DHT22;4996;48.746;9.174;2023-02-26T17:59:33;1.60;99.90
9915;DHT22;4996;48.746;9.174;2023-02-26T18:01:59;1.20;99.90
9915;DHT22;4996;48.746;9.174;2023-02-26T18:04:25;1.00;99.90
9915;DHT22;4996;48.746;9.174;2023-02-26T18:06:51;0.90;99.90
9915;DHT22;4996;48.746;9.174;2023-02-26T18:09:16;1.00;99.90
9915;DHT22;4996;48.746;9.174;2023-02-26T18:11:42;0.90;99.90
9915;DHT22;4996;48.746;9.174;2023-02-26T18:14:09;1.00;99.90
9915;DHT22;4996;48.746;9.174;2023-02-26T18:16:37;1.00;99.90
9915;DHT22;4996;48.746;9.174;2023-02-26T18:19:04;1.20;99.90
9915;DHT22;4996;48.746;9.174;2023-02-26T18:21:31;0.80;99.90
9915;DHT22;4996;48.746;9.174;2023-02-26T18:24:00;1.00;99.90
9915;DHT22;4996;48.746;9.174;2023-02-26T18:26:30;0.90;99.90
9915;DHT22;4996;48.746;9.174;2023-02-26T18:28:56;1.40;99.90
9915;DHT22;4996;48.746;9.174;2023-02-26T18:31:23;0.90;99.90
9915;DHT22;4996;48.746;9.174;2023-02-26T18:33:57;0.90;99.90
9915;DHT22;4996;48.746;9.174;2023-02-26T18:36:24;1.00;99.90
9915;DHT22;4996;48.746;9.174;2023-02-26T18:38:55;0.80;99.90
9915;DHT22;4996;48.746;9.174;2023-02-26T18:41:22;1.00;99.90
9915;DHT22;4996;48.746;9.174;2023-02-26T18:43:48;0.70;99.90
9915;DHT22;4996;48.746;9.174;2023-02-26T18:46:13;1.10;99.90
9915;DHT22;4996;48.746;9.174;2023-02-26T18:48:39;0.70;99.90
9915;DHT22;4996;48.746;9.174;2023-02-26T18:51:05;0.80;99.90
9915;DHT22;4996;48.746;9.174;2023-02-26T18:53:31;1.00;99.90
9915;DHT22;4996;48.746;9.174;2023-02-26T18:55:58;0.80;99.90
9915;DHT22;4996;48.746;9.174;2023-02-26T18:58:24;0.80;99.90
9915;DHT22;4996;48.746;9.174;2023-02-26T19:00:51;0.60;99.90
9915;DHT22;4996;48.746;9.174;2023-02-26T19:03:18;0.70;99.90
9915;DHT22;4996;48.746;9.174;2023-02-26T19:05:43;0.50;99.90
9915;DHT22;4996;48.746;9.174;2023-02-26T19:08:09;0.60;99.90
9915;DHT22;4996;48.746;9.174;2023-02-26T19:10:35;0.50;99.90
9915;DHT22;4996;48.746;9.174;2023-02-26T19:13:01;0.50;99.90
9915;DHT22;4996;48.746;9.174;2023-02-26T19:15:28;0.60;99.90
9915;DHT22;4996;48.746;9.174;2023-02-26T19:17:54;0.40;99.90
9915;DHT22;4996;48.746;9.174;2023-02-26T19:20:20;0.60;99.90
9915;DHT22;4996;48.746;9.174;2023-02-26T19:22:45;0.70;99.90
9915;DHT22;4996;48.746;9.174;2023-02-26T19:25:11;0.80;99.90